Time;durP1;ratioP1;P1;durP2;ratioP2;P2;SDS_P1;SDS_P2;PMS_P1;PMS_P2;Temp;Humidity;BMP_temperature;BMP_pressure;BME280_temperature;BME280_humidity;BME280_pressure;Samples;Min_cycle;Max_cycle;Signal;HPM_P1;HPM_P2
2022/10/01 00:00:59;;;;;;;11.50;7.33;;;8.90;99.90;;;;;;5013052;28;20461;-71
2022/10/01 00:03:26;;;;;;;9.53;7.70;;;8.80;99.90;;;;;;5022237;28;20446;-69
2022/10/01 00:06:03;;;;;;;9.40;8.50;;;8.90;99.90;;;;;;5012011;28;21097;-70
2022/10/01 00:08:30;;;;;;;7.50;6.80;;;8.90;99.90;;;;;;5011275;28;20452;-70
2022/10/01 00:10:57;;;;;;;7.67;6.87;;;8.80;99.90;;;;;;5017522;28;20445;-69
2022/10/01 00:13:22;;;;;;;7.90;7.20;;;8.80;99.90;;;;;;5006995;28;20442;-69
2022/10/01 00:15:48;;;;;;;8.80;7.90;;;8.80;99.90;;;;;;5011706;28;20465;-70
2022/10/01 00:18:13;;;;;;;9.43;8.63;;;8.80;99.90;;;;;;5011268;28;20217;-69
2022/10/01 00:20:42;;;;;;;8.40;7.60;;;8.70;99.90;;;;;;5010143;28;20206;-69
2022/10/01 00:23:08;;;;;;;12.70;8.27;;;8.70;99.90;;;;;;5010888;28;20649;-69
2022/10/01 00:25:34;;;;;;;8.13;7.30;;;8.70;99.90;;;;;;5016694;28;20546;-69
2022/10/01 00:28:00;;;;;;;9.07;7.60;;;8.70;99.90;;;;;;5010426;28;20476;-70
2022/10/01 00:30:25;;;;;;;7.73;7.10;;;8.70;99.90;;;;;;5005592;28;20179;-69
2022/10/01 00:32:54;;;;;;;10.80;9.37;;;8.60;99.90;;;;;;5009934;28;20617;-68
2022/10/01 00:35:21;;;;;;;9.93;8.93;;;8.60;99.90;;;;;;5011337;28;20574;-70
2022/10/01 00:37:51;;;;;;;8.60;7.80;;;8.60;99.90;;;;;;5011775;28;21219;-70
2022/10/01 00:40:18;;;;;;;9.83;9.00;;;8.50;99.90;;;;;;5009635;28;20790;-70
2022/10/01 00:42:44;;;;;;;13.00;8.40;;;8.50;99.90;;;;;;5015588;28;20874;-69
2022/10/01 00:45:11;;;;;;;8.70;8.00;;;8.50;99.90;;;;;;5009353;28;20556;-69
2022/10/01 00:47:41;;;;;;;9.17;7.90;;;8.40;99.90;;;;;;5009586;28;20508;-69
2022/10/01 00:50:20;;;;;;;8.50;7.70;;;8.50;99.90;;;;;;5010909;28;20437;-70
2022/10/01 00:52:51;;;;;;;8.00;7.30;;;8.50;99.90;;;;;;5005508;28;20438;-70
2022/10/01 00:55:21;;;;;;;8.83;7.50;;;8.50;99.90;;;;;;5009977;28;20476;-69
2022/10/01 00:57:46;;;;;;;11.10;8.60;;;8.60;99.90;;;;;;5011039;28;21179;-68
2022/10/01 01:00:12;;;;;;;8.70;7.87;;;8.60;99.90;;;;;;5008844;28;20429;-70
2022/10/01 01:02:39;;;;;;;7.77;7.07;;;8.70;99.90;;;;;;5008992;28;20257;-69
2022/10/01 01:05:07;;;;;;;7.93;7.13;;;8.70;99.90;;;;;;5009783;28;20893;-70
2022/10/01 01:07:33;;;;;;;8.30;7.60;;;8.70;99.90;;;;;;5011270;28;20440;-70
2022/10/01 01:10:01;;;;;;;7.50;6.30;;;8.70;99.90;;;;;;5010218;28;20438;-69
2022/10/01 01:12:51;;;;;;;10.10;7.90;;;8.70;99.90;;;;;;5008835;28;20827;-69
2022/10/01 01:15:24;;;;;;;7.53;6.93;;;8.70;99.90;;;;;;5015033;28;20827;-69
2022/10/01 01:18:09;;;;;;;7.93;7.23;;;8.70;99.90;;;;;;5008655;28;20863;-69
2022/10/01 01:21:08;;;;;;;7.17;6.57;;;8.70;99.90;;;;;;5017413;28;20439;-69
2022/10/01 01:23:43;;;;;;;6.20;5.50;;;8.70;99.90;;;;;;5013001;28;20501;-71
2022/10/01 01:26:31;;;;;;;6.57;5.63;;;8.70;99.90;;;;;;5015105;28;20494;-70
2022/10/01 01:29:10;;;;;;;6.03;5.43;;;8.70;99.90;;;;;;5007427;28;20442;-69
2022/10/01 01:31:45;;;;;;;8.30;5.10;;;8.70;99.90;;;;;;5012169;28;20494;-70
2022/10/01 01:34:22;;;;;;;7.90;6.17;;;8.70;99.90;;;;;;5023627;28;20460;-69
2022/10/01 01:36:53;;;;;;;5.87;5.37;;;8.80;99.90;;;;;;5025868;28;20515;-70
2022/10/01 01:39:22;;;;;;;7.30;6.13;;;8.80;99.90;;;;;;5013061;28;20437;-70
2022/10/01 01:41:53;;;;;;;6.13;5.53;;;8.70;99.90;;;;;;5017497;28;20456;-70
2022/10/01 01:44:25;;;;;;;6.23;5.73;;;8.70;99.90;;;;;;5025944;28;20603;-68
2022/10/01 01:46:55;;;;;;;5.67;5.17;;;8.80;99.90;;;;;;5015271;28;20524;-70
2022/10/01 01:49:21;;;;;;;5.63;5.13;;;8.80;99.90;;;;;;5009479;28;20441;-69
2022/10/01 01:51:55;;;;;;;5.33;4.83;;;8.80;99.90;;;;;;5022149;28;20438;-69
2022/10/01 01:54:21;;;;;;;5.23;4.83;;;8.80;99.90;;;;;;5019242;28;20872;-69
2022/10/01 01:56:49;;;;;;;6.27;5.53;;;8.80;99.90;;;;;;5016134;28;20437;-69
2022/10/01 01:59:17;;;;;;;6.40;5.80;;;8.90;99.90;;;;;;5019427;28;20227;-70
2022/10/01 02:01:43;;;;;;;5.50;5.00;;;8.90;99.90;;;;;;5019856;28;20467;-69
2022/10/01 02:04:24;;;;;;;5.70;5.20;;;8.90;99.90;;;;;;5017393;28;20493;-68
2022/10/01 02:07:05;;;;;;;5.83;5.33;;;8.90;99.90;;;;;;5008681;28;20523;-70
2022/10/01 02:09:49;;;;;;;5.67;5.10;;;8.90;99.90;;;;;;5017383;28;20862;-69
2022/10/01 02:12:25;;;;;;;5.40;4.90;;;9.00;99.90;;;;;;5020296;28;20476;-69
2022/10/01 02:15:07;;;;;;;5.60;5.10;;;9.00;99.90;;;;;;5014292;28;20603;-69
2022/10/01 02:17:51;;;;;;;6.37;5.40;;;9.00;99.90;;;;;;5016965;28;20447;-69
2022/10/01 02:20:29;;;;;;;5.40;4.90;;;9.00;99.90;;;;;;5014453;28;20502;-69
2022/10/01 02:23:02;;;;;;;5.70;5.10;;;9.00;99.90;;;;;;5008130;28;20471;-70
2022/10/01 02:25:34;;;;;;;7.40;5.50;;;9.00;99.90;;;;;;5020081;28;20452;-70
2022/10/01 02:28:06;;;;;;;5.30;4.90;;;9.00;99.90;;;;;;5014274;28;20441;-70
2022/10/01 02:30:34;;;;;;;5.73;5.20;;;9.00;99.90;;;;;;5019547;28;20434;-69
2022/10/01 02:33:01;;;;;;;5.20;4.80;;;9.00;99.90;;;;;;5022433;28;20428;-70
2022/10/01 02:35:30;;;;;;;5.07;4.57;;;9.00;99.90;;;;;;5017207;28;20457;-69
2022/10/01 02:37:58;;;;;;;5.97;5.40;;;9.00;99.90;;;;;;5012459;28;20899;-69
2022/10/01 02:40:27;;;;;;;5.40;4.90;;;8.90;99.90;;;;;;5009286;28;20438;-68
2022/10/01 02:43:01;;;;;;;4.87;4.47;;;8.90;99.90;;;;;;5009184;28;20444;-69
2022/10/01 02:45:31;;;;;;;6.00;4.50;;;9.00;99.90;;;;;;5007411;28;20895;-69
2022/10/01 02:48:07;;;;;;;5.43;4.70;;;9.00;99.90;;;;;;5012631;28;20433;-69
2022/10/01 02:50:41;;;;;;;5.57;5.07;;;9.00;99.90;;;;;;5021212;28;20436;-69
2022/10/01 02:53:15;;;;;;;5.00;4.50;;;8.90;99.90;;;;;;5018974;28;21046;-68
2022/10/01 02:55:43;;;;;;;5.20;4.80;;;8.90;99.90;;;;;;5024021;28;20467;-68
2022/10/01 02:58:10;;;;;;;6.97;4.60;;;9.00;99.90;;;;;;5015072;28;20441;-66
2022/10/01 03:00:36;;;;;;;5.33;4.83;;;8.90;99.90;;;;;;5011851;28;20472;-67
2022/10/01 03:03:01;;;;;;;5.47;4.70;;;9.00;99.90;;;;;;5019510;28;20474;-67
2022/10/01 03:05:27;;;;;;;5.60;5.10;;;9.00;99.90;;;;;;5010041;28;20230;-67
2022/10/01 03:07:52;;;;;;;5.53;4.83;;;9.00;99.90;;;;;;5016854;28;20175;-68
2022/10/01 03:10:18;;;;;;;4.67;4.27;;;9.00;99.90;;;;;;5010084;28;20173;-67
2022/10/01 03:12:45;;;;;;;4.93;4.40;;;9.00;99.90;;;;;;5020585;28;20183;-68
2022/10/01 03:15:16;;;;;;;5.50;5.00;;;9.00;99.90;;;;;;5009155;28;20461;-67
2022/10/01 03:17:42;;;;;;;5.00;4.47;;;9.00;99.90;;;;;;5015004;28;20491;-68
2022/10/01 03:20:08;;;;;;;5.17;4.77;;;9.00;99.90;;;;;;5011404;28;20883;-68
2022/10/01 03:22:34;;;;;;;4.33;4.03;;;9.00;99.90;;;;;;5011460;28;20214;-69
2022/10/01 03:24:59;;;;;;;4.80;4.40;;;9.00;99.90;;;;;;5012996;28;20796;-67
2022/10/01 03:27:25;;;;;;;3.90;3.63;;;9.00;99.90;;;;;;5011782;28;20191;-70
2022/10/01 03:29:51;;;;;;;4.23;3.83;;;9.00;99.90;;;;;;5012454;28;20615;-69
2022/10/01 03:32:17;;;;;;;4.83;4.43;;;9.00;99.90;;;;;;5012195;28;20211;-70
2022/10/01 03:34:42;;;;;;;5.30;4.90;;;8.90;99.90;;;;;;5012453;28;20680;-68
2022/10/01 03:37:08;;;;;;;5.93;4.40;;;8.90;99.90;;;;;;5013787;28;20434;-69
2022/10/01 03:39:34;;;;;;;6.23;4.43;;;8.90;99.90;;;;;;5019965;28;20197;-70
2022/10/01 03:41:59;;;;;;;5.20;4.57;;;8.90;99.90;;;;;;5025068;28;20576;-70
2022/10/01 03:44:27;;;;;;;4.90;3.60;;;9.00;99.90;;;;;;5023251;28;21026;-69
2022/10/01 03:46:53;;;;;;;4.87;4.13;;;9.00;99.90;;;;;;5012688;28;20175;-69
2022/10/01 03:49:19;;;;;;;5.60;4.13;;;8.90;99.90;;;;;;5011870;28;20461;-69
2022/10/01 03:51:44;;;;;;;4.10;3.80;;;8.90;99.90;;;;;;5011382;28;20442;-68
2022/10/01 03:54:10;;;;;;;3.97;3.67;;;9.00;99.90;;;;;;5012153;28;20209;-67
2022/10/01 03:56:37;;;;;;;3.33;3.03;;;9.00;99.90;;;;;;5020975;28;20273;-67
2022/10/01 03:59:03;;;;;;;4.13;3.83;;;9.00;99.90;;;;;;5012906;28;20555;-68
2022/10/01 04:01:29;;;;;;;4.27;3.67;;;9.00;99.90;;;;;;5020661;28;20467;-68
2022/10/01 04:03:55;;;;;;;3.37;3.07;;;9.00;99.90;;;;;;5020908;28;20178;-67
2022/10/01 04:06:20;;;;;;;3.70;3.40;;;8.90;99.90;;;;;;5010565;28;20822;-68
2022/10/01 04:08:46;;;;;;;3.40;3.10;;;8.90;99.90;;;;;;5012713;28;20179;-67
2022/10/01 04:11:11;;;;;;;4.23;3.67;;;8.90;99.90;;;;;;5020411;28;20175;-67
2022/10/01 04:13:37;;;;;;;4.00;3.70;;;8.90;99.90;;;;;;5013053;28;20595;-67
2022/10/01 04:16:04;;;;;;;3.50;3.20;;;9.00;99.90;;;;;;5012824;28;20195;-68
2022/10/01 04:18:30;;;;;;;3.87;3.57;;;9.00;99.90;;;;;;5011011;28;20190;-68
2022/10/01 04:20:56;;;;;;;3.23;2.93;;;9.00;99.90;;;;;;5012017;28;20822;-67
2022/10/01 04:23:23;;;;;;;6.23;3.77;;;9.00;99.90;;;;;;5013026;28;20434;-67
2022/10/01 04:25:48;;;;;;;3.93;3.63;;;9.00;99.90;;;;;;5008686;28;20471;-67
2022/10/01 04:28:14;;;;;;;3.60;3.30;;;9.00;99.90;;;;;;5006065;28;20530;-67
2022/10/01 04:30:42;;;;;;;4.07;3.70;;;9.00;99.90;;;;;;5013333;28;20601;-67
2022/10/01 04:33:11;;;;;;;3.80;3.40;;;9.00;99.90;;;;;;5007509;28;20305;-67
2022/10/01 04:35:38;;;;;;;3.37;3.10;;;9.00;99.90;;;;;;5008093;28;20457;-68
2022/10/01 04:38:05;;;;;;;3.30;3.00;;;9.10;99.90;;;;;;5011157;28;20437;-67
2022/10/01 04:40:34;;;;;;;3.70;3.40;;;9.00;99.90;;;;;;5001744;28;20429;-67
2022/10/01 04:43:03;;;;;;;3.37;3.07;;;9.10;99.90;;;;;;5008928;28;20469;-67
2022/10/01 04:45:29;;;;;;;7.03;4.23;;;9.10;99.90;;;;;;5007668;28;20460;-67
2022/10/01 04:47:55;;;;;;;3.63;3.33;;;9.10;99.90;;;;;;5012891;28;20430;-67
2022/10/01 04:50:23;;;;;;;3.00;2.80;;;9.10;99.90;;;;;;5019939;28;20559;-67
2022/10/01 04:52:49;;;;;;;3.37;3.07;;;9.10;99.90;;;;;;5011505;28;20437;-67
2022/10/01 04:55:17;;;;;;;3.40;2.80;;;9.20;99.90;;;;;;5005156;28;20470;-67
2022/10/01 04:57:42;;;;;;;3.17;2.87;;;9.20;99.90;;;;;;5005263;28;20848;-67
2022/10/01 05:00:11;;;;;;;2.80;2.60;;;9.20;99.90;;;;;;5012163;28;20454;-67
2022/10/01 05:02:37;;;;;;;3.00;2.80;;;9.20;99.90;;;;;;5003842;28;20199;-67
2022/10/01 05:05:04;;;;;;;4.07;3.00;;;9.30;99.90;;;;;;5010129;28;20464;-69
2022/10/01 05:07:31;;;;;;;2.90;2.70;;;9.30;99.90;;;;;;5005517;28;20180;-69
2022/10/01 05:09:57;;;;;;;3.13;2.60;;;9.30;99.90;;;;;;5005439;28;20532;-68
2022/10/01 05:12:24;;;;;;;2.73;2.53;;;9.30;99.90;;;;;;5015386;28;20436;-69
2022/10/01 05:14:51;;;;;;;2.80;2.60;;;9.40;99.90;;;;;;5011362;28;20484;-69
2022/10/01 05:17:17;;;;;;;6.03;2.47;;;9.40;99.90;;;;;;5012020;28;20444;-69
2022/10/01 05:19:43;;;;;;;2.50;2.30;;;9.40;99.90;;;;;;5015793;28;20492;-67
2022/10/01 05:22:09;;;;;;;2.47;2.27;;;9.40;99.90;;;;;;5011377;28;20461;-68
2022/10/01 05:24:34;;;;;;;2.47;2.27;;;9.40;99.90;;;;;;5013238;28;20535;-69
2022/10/01 05:27:00;;;;;;;4.53;3.00;;;9.50;99.90;;;;;;5004304;28;20308;-69
2022/10/01 05:29:26;;;;;;;2.70;2.50;;;9.50;99.90;;;;;;5007487;28;20254;-68
2022/10/01 05:31:51;;;;;;;2.67;2.47;;;9.50;99.90;;;;;;5010781;28;20178;-69
2022/10/01 05:34:17;;;;;;;2.50;2.30;;;9.50;99.90;;;;;;5011449;28;20207;-69
2022/10/01 05:36:42;;;;;;;1.97;1.87;;;9.50;99.90;;;;;;5011862;28;20186;-68
2022/10/01 05:39:08;;;;;;;4.00;2.23;;;9.60;99.90;;;;;;5008806;28;20175;-69
2022/10/01 05:41:34;;;;;;;2.30;2.10;;;9.60;99.90;;;;;;5010412;28;20203;-67
2022/10/01 05:43:59;;;;;;;2.47;2.27;;;9.60;99.90;;;;;;5010455;28;20434;-68
2022/10/01 05:46:25;;;;;;;2.80;2.60;;;9.60;99.90;;;;;;5010399;28;20261;-68
2022/10/01 05:48:51;;;;;;;2.43;2.30;;;9.60;99.90;;;;;;5009010;28;20193;-67
2022/10/01 05:51:17;;;;;;;2.70;2.07;;;9.60;99.90;;;;;;5010411;28;20210;-67
2022/10/01 05:53:45;;;;;;;2.10;2.00;;;9.60;99.90;;;;;;5009555;28;20185;-67
2022/10/01 05:56:11;;;;;;;2.90;2.43;;;9.60;99.90;;;;;;5008421;28;20911;-67
2022/10/01 05:58:37;;;;;;;2.40;2.20;;;9.60;99.90;;;;;;5008737;28;20449;-68
2022/10/01 06:01:03;;;;;;;1.90;1.77;;;9.70;99.90;;;;;;5009273;28;20462;-67
2022/10/01 06:03:29;;;;;;;2.43;2.23;;;9.60;99.90;;;;;;5010833;28;20181;-67
2022/10/01 06:05:55;;;;;;;2.60;2.40;;;9.60;99.90;;;;;;5011517;28;20457;-67
2022/10/01 06:08:21;;;;;;;2.47;2.10;;;9.60;99.90;;;;;;5008745;28;20726;-67
2022/10/01 06:10:47;;;;;;;4.30;2.57;;;9.60;99.90;;;;;;5010205;28;20175;-68
2022/10/01 06:13:19;;;;;;;3.00;2.70;;;9.50;99.90;;;;;;5010191;28;20229;-68
2022/10/01 06:15:45;;;;;;;2.60;2.40;;;9.40;99.90;;;;;;5021860;28;20456;-68
2022/10/01 06:18:12;;;;;;;2.87;2.67;;;9.30;99.90;;;;;;5022277;28;20468;-68
2022/10/01 06:20:39;;;;;;;3.60;2.33;;;9.20;99.90;;;;;;5022573;28;20856;-68
2022/10/01 06:23:08;;;;;;;2.53;2.33;;;9.10;99.90;;;;;;5019030;28;20520;-68
2022/10/01 06:25:35;;;;;;;2.30;2.17;;;9.10;99.90;;;;;;5020382;28;20511;-68
2022/10/01 06:28:02;;;;;;;2.93;2.70;;;9.10;99.90;;;;;;5021044;28;20441;-68
2022/10/01 06:30:30;;;;;;;2.60;2.40;;;9.10;99.90;;;;;;5023607;28;20433;-68
2022/10/01 06:33:03;;;;;;;2.30;2.10;;;9.00;99.90;;;;;;5022291;28;20490;-68
2022/10/01 06:35:32;;;;;;;2.57;2.37;;;9.00;99.90;;;;;;5019650;28;20464;-67
2022/10/01 06:38:01;;;;;;;2.97;2.70;;;9.00;99.90;;;;;;5017818;28;20971;-68
2022/10/01 06:40:28;;;;;;;7.13;3.10;;;9.00;99.90;;;;;;5024444;28;20792;-67
2022/10/01 06:42:57;;;;;;;2.70;2.50;;;9.00;99.90;;;;;;5019062;28;20464;-67
2022/10/01 06:45:23;;;;;;;2.97;2.50;;;9.00;99.90;;;;;;5017437;28;20566;-67
2022/10/01 06:47:56;;;;;;;2.80;2.60;;;9.00;99.90;;;;;;5012420;28;20929;-69
2022/10/01 06:50:23;;;;;;;3.70;2.27;;;9.10;99.90;;;;;;5017985;28;20449;-68
2022/10/01 06:52:50;;;;;;;2.67;2.40;;;9.10;99.90;;;;;;5024879;28;20444;-67
2022/10/01 06:55:30;;;;;;;3.17;2.90;;;9.10;99.90;;;;;;5025714;28;20491;-69
2022/10/01 06:58:16;;;;;;;2.80;2.60;;;9.10;99.90;;;;;;5024365;28;20527;-67
2022/10/01 07:00:42;;;;;;;2.70;2.50;;;9.20;99.90;;;;;;5021128;28;20445;-66
2022/10/01 07:03:14;;;;;;;5.07;2.70;;;9.10;99.90;;;;;;5022031;28;21005;-67
2022/10/01 07:05:40;;;;;;;3.17;2.87;;;9.20;99.90;;;;;;5019596;28;20458;-68
2022/10/01 07:08:06;;;;;;;4.77;2.20;;;9.30;99.90;;;;;;5022537;28;20444;-69
2022/10/01 07:10:33;;;;;;;2.63;2.43;;;9.30;99.90;;;;;;5028879;28;20178;-67
2022/10/01 07:13:24;;;;;;;2.97;2.73;;;9.30;99.90;;;;;;5023486;28;20439;-67
2022/10/01 07:15:50;;;;;;;4.50;2.60;;;9.30;99.90;;;;;;5016974;28;20516;-67
2022/10/01 07:18:15;;;;;;;4.83;2.60;;;9.30;99.90;;;;;;5028501;28;20440;-67
2022/10/01 07:20:41;;;;;;;3.20;3.00;;;9.30;99.90;;;;;;5022089;28;20186;-67
2022/10/01 07:23:10;;;;;;;2.80;2.60;;;9.30;99.90;;;;;;5016918;28;20183;-67
2022/10/01 07:25:37;;;;;;;3.07;2.67;;;9.40;99.90;;;;;;5021715;28;20239;-67
2022/10/01 07:28:04;;;;;;;2.80;2.60;;;9.40;99.90;;;;;;5015700;28;20460;-67
2022/10/01 07:30:31;;;;;;;3.20;2.47;;;9.30;99.90;;;;;;5019088;28;20528;-67
2022/10/01 07:32:57;;;;;;;3.63;2.30;;;9.30;99.90;;;;;;5016393;28;20437;-68
2022/10/01 07:35:22;;;;;;;2.43;2.23;;;9.30;99.90;;;;;;5012880;28;20523;-72
2022/10/01 07:37:54;;;;;;;2.67;2.47;;;9.40;99.90;;;;;;5012927;28;20179;-67
2022/10/01 07:40:19;;;;;;;2.77;2.57;;;9.40;99.90;;;;;;5011576;28;20214;-70
2022/10/01 07:42:53;;;;;;;2.97;2.77;;;9.30;99.90;;;;;;5010266;28;21020;-69
2022/10/01 07:45:20;;;;;;;3.33;3.00;;;9.40;99.90;;;;;;5009324;28;20190;-69
2022/10/01 07:47:52;;;;;;;2.77;2.57;;;9.40;99.90;;;;;;5016772;28;20531;-69
2022/10/01 07:50:17;;;;;;;2.73;2.53;;;9.40;99.90;;;;;;5023849;28;20441;-68
2022/10/01 07:52:43;;;;;;;2.70;2.50;;;9.50;99.90;;;;;;5021699;28;21010;-67
2022/10/01 07:55:09;;;;;;;3.00;2.80;;;9.40;99.90;;;;;;5020367;28;20215;-68
2022/10/01 07:57:35;;;;;;;3.13;2.00;;;9.40;99.90;;;;;;5022760;28;20270;-67
2022/10/01 08:00:01;;;;;;;3.17;2.87;;;9.40;99.90;;;;;;5025431;28;20516;-67
2022/10/01 08:02:26;;;;;;;4.10;3.07;;;9.40;99.90;;;;;;5013994;28;20210;-67
2022/10/01 08:07:36;;;;;;;4.17;3.47;;;9.40;99.90;;;;;;4994548;28;20187;-68
2022/10/01 08:10:03;;;;;;;3.87;2.97;;;9.30;99.90;;;;;;4994224;28;20419;-67
2022/10/01 08:12:29;;;;;;;3.57;3.27;;;9.30;99.90;;;;;;5004429;28;20178;-68
2022/10/01 08:14:54;;;;;;;3.07;2.87;;;9.40;99.90;;;;;;5029564;28;20457;-72
2022/10/01 08:17:20;;;;;;;3.37;3.00;;;9.00;99.90;;;;;;5018659;28;20441;-69
2022/10/01 08:19:46;;;;;;;4.10;2.20;;;9.40;99.90;;;;;;5014001;28;20555;-68
2022/10/01 08:22:11;;;;;;;3.90;3.60;;;9.40;99.90;;;;;;5012812;28;20253;-68
2022/10/01 08:24:37;;;;;;;2.83;2.60;;;9.40;99.90;;;;;;5012347;28;20635;-67
2022/10/01 08:27:02;;;;;;;3.60;2.97;;;9.50;99.90;;;;;;5012446;28;20258;-66
2022/10/01 08:29:28;;;;;;;3.57;2.70;;;9.60;99.90;;;;;;5013733;28;20197;-69
2022/10/01 08:31:54;;;;;;;3.23;2.93;;;9.60;99.90;;;;;;5012574;28;20185;-68
2022/10/01 08:34:19;;;;;;;2.90;2.70;;;9.60;99.90;;;;;;5013165;28;20214;-70
2022/10/01 08:36:50;;;;;;;3.40;3.10;;;9.60;99.90;;;;;;5017923;28;20425;-71
2022/10/01 08:39:16;;;;;;;4.17;2.80;;;9.60;99.90;;;;;;5011907;28;20183;-71
2022/10/01 08:41:48;;;;;;;3.77;3.47;;;9.50;99.90;;;;;;5014622;28;22093;-68
2022/10/01 08:44:20;;;;;;;8.10;3.60;;;9.50;99.90;;;;;;5009099;28;20207;-71
2022/10/01 08:46:48;;;;;;;3.10;2.83;;;9.50;99.90;;;;;;5015077;28;20436;-68
2022/10/01 08:49:24;;;;;;;3.83;3.53;;;9.60;99.90;;;;;;5010444;28;20441;-70
2022/10/01 08:52:05;;;;;;;2.80;2.60;;;9.60;99.90;;;;;;5017839;28;20472;-69
2022/10/01 08:54:46;;;;;;;3.57;3.30;;;9.60;99.90;;;;;;5021622;28;20977;-69
2022/10/01 08:57:19;;;;;;;4.60;4.20;;;9.70;99.90;;;;;;5012150;28;20434;-68
2022/10/01 08:59:55;;;;;;;3.60;3.30;;;9.70;99.90;;;;;;5020280;28;20429;-68
2022/10/01 09:02:32;;;;;;;4.90;4.20;;;9.70;99.90;;;;;;5014127;28;20454;-68
2022/10/01 09:05:05;;;;;;;4.40;4.00;;;9.80;99.90;;;;;;5016395;28;20457;-68
2022/10/01 09:07:40;;;;;;;3.57;3.27;;;9.80;99.90;;;;;;5017903;28;20434;-69
2022/10/01 09:10:48;;;;;;;3.23;3.03;;;9.90;99.90;;;;;;5019784;28;20429;-72
2022/10/01 09:13:38;;;;;;;5.57;3.20;;;9.90;99.90;;;;;;4999903;28;20526;-69
2022/10/01 09:16:18;;;;;;;3.10;2.70;;;9.90;99.90;;;;;;5019029;28;20465;-68
2022/10/01 09:19:11;;;;;;;3.13;2.83;;;10.00;99.90;;;;;;5012862;28;21140;-68
2022/10/01 09:21:47;;;;;;;3.80;3.13;;;10.10;99.90;;;;;;5019777;28;20465;-68
2022/10/01 09:24:26;;;;;;;5.77;3.00;;;10.10;99.90;;;;;;5005567;28;20485;-68
2022/10/01 09:26:51;;;;;;;2.90;2.70;;;10.20;99.90;;;;;;5016697;28;20438;-70
2022/10/01 09:29:35;;;;;;;2.90;2.70;;;10.30;99.90;;;;;;5019153;28;20444;-69
2022/10/01 09:32:04;;;;;;;2.73;2.43;;;10.30;99.90;;;;;;5009253;28;20211;-69
2022/10/01 09:34:36;;;;;;;3.17;2.57;;;10.30;99.90;;;;;;5018260;28;20462;-68
2022/10/01 09:37:17;;;;;;;2.90;2.70;;;10.30;99.90;;;;;;5007970;28;20462;-68
2022/10/01 09:40:14;;;;;;;3.73;2.90;;;10.40;99.90;;;;;;5005539;28;21030;-68
2022/10/01 09:42:40;;;;;;;2.63;2.43;;;10.40;99.90;;;;;;5008270;28;20473;-68
2022/10/01 09:45:14;;;;;;;7.77;3.90;;;10.50;99.90;;;;;;5008003;28;20476;-68
2022/10/01 09:47:44;;;;;;;5.87;2.00;;;10.50;99.90;;;;;;5011124;28;20434;-68
2022/10/01 09:50:37;;;;;;;3.03;2.60;;;10.50;99.90;;;;;;5012745;28;20441;-68
2022/10/01 09:53:04;;;;;;;2.20;2.10;;;10.60;99.90;;;;;;5006847;28;20449;-67
2022/10/01 09:55:39;;;;;;;2.00;1.90;;;10.70;99.90;;;;;;5009933;28;20476;-72
2022/10/01 09:58:18;;;;;;;5.00;3.07;;;10.70;99.90;;;;;;5013677;28;20437;-70
2022/10/01 10:00:44;;;;;;;2.00;1.70;;;10.80;99.90;;;;;;5016325;28;20576;-71
2022/10/01 10:03:21;;;;;;;1.93;1.83;;;10.70;99.90;;;;;;5009812;28;20884;-69
2022/10/01 10:05:48;;;;;;;2.17;2.07;;;10.70;99.90;;;;;;5008572;28;20248;-69
2022/10/01 10:08:26;;;;;;;1.60;1.50;;;10.70;99.90;;;;;;5009004;28;20455;-69
2022/10/01 10:11:19;;;;;;;1.70;1.60;;;10.80;99.90;;;;;;5003668;28;20448;-69
2022/10/01 10:13:50;;;;;;;2.10;1.77;;;10.80;99.90;;;;;;5008005;28;20935;-69
2022/10/01 10:16:33;;;;;;;1.90;1.80;;;10.80;99.90;;;;;;5009825;28;20449;-69
2022/10/01 10:19:02;;;;;;;1.77;1.67;;;10.90;99.90;;;;;;5008366;28;20492;-70
2022/10/01 10:21:32;;;;;;;2.07;1.47;;;10.90;99.90;;;;;;5007734;28;20552;-69
2022/10/01 10:24:01;;;;;;;2.10;1.60;;;10.90;99.90;;;;;;5009756;28;20442;-71
2022/10/01 10:26:38;;;;;;;3.93;1.50;;;10.90;99.90;;;;;;5013166;28;20927;-68
2022/10/01 10:29:07;;;;;;;1.80;1.70;;;10.90;99.90;;;;;;5011449;28;20532;-70
2022/10/01 10:31:44;;;;;;;1.77;1.67;;;11.00;99.90;;;;;;5010927;28;20524;-71
2022/10/01 10:34:26;;;;;;;2.77;1.70;;;11.00;99.90;;;;;;5006906;28;20564;-71
2022/10/01 10:37:00;;;;;;;2.40;1.70;;;11.00;99.90;;;;;;5011537;28;20449;-71
2022/10/01 10:39:33;;;;;;;2.40;1.53;;;11.00;99.90;;;;;;5013893;28;20438;-71
2022/10/01 10:42:02;;;;;;;1.97;1.47;;;11.00;99.90;;;;;;5021240;28;20467;-71
2022/10/01 10:44:33;;;;;;;1.50;1.40;;;11.00;99.90;;;;;;5017370;28;20506;-71
2022/10/01 10:47:01;;;;;;;1.90;1.67;;;11.10;99.90;;;;;;5020806;28;20828;-70
2022/10/01 10:49:30;;;;;;;1.70;1.47;;;11.10;99.90;;;;;;5013556;28;20938;-71
2022/10/01 10:51:59;;;;;;;2.77;1.47;;;11.20;99.90;;;;;;5026324;28;20817;-70
2022/10/01 10:54:39;;;;;;;1.40;1.30;;;11.30;99.90;;;;;;5022549;28;20479;-70
2022/10/01 10:57:28;;;;;;;2.87;1.30;;;11.30;99.90;;;;;;5012666;28;20515;-70
2022/10/01 11:00:05;;;;;;;4.63;4.30;;;11.40;99.90;;;;;;5012105;28;20477;-69
2022/10/01 11:02:32;;;;;;;1.63;1.40;;;11.60;99.90;;;;;;5021434;28;20513;-70
2022/10/01 11:05:10;;;;;;;1.60;1.50;;;11.90;99.90;;;;;;5022182;28;20464;-70
2022/10/01 11:07:36;;;;;;;2.20;1.20;;;12.10;99.90;;;;;;5022304;28;20445;-70
2022/10/01 11:10:19;;;;;;;1.60;1.50;;;12.30;99.90;;;;;;5024881;28;20459;-70
2022/10/01 11:12:48;;;;;;;1.03;0.93;;;12.60;99.90;;;;;;5017696;28;20267;-70
2022/10/01 11:15:40;;;;;;;1.20;1.10;;;12.90;99.90;;;;;;5026744;28;20978;-69
2022/10/01 11:18:33;;;;;;;1.10;1.00;;;12.90;99.90;;;;;;5017743;28;20442;-68
2022/10/01 11:21:20;;;;;;;0.90;0.90;;;12.90;99.90;;;;;;5011809;28;20815;-69
2022/10/01 11:24:04;;;;;;;1.63;1.10;;;12.70;99.90;;;;;;5011345;28;20438;-70
2022/10/01 11:26:38;;;;;;;0.97;0.90;;;12.60;99.90;;;;;;5014643;28;20452;-70
2022/10/01 11:29:43;;;;;;;3.70;1.73;;;12.40;99.90;;;;;;5019678;28;20535;-70
2022/10/01 11:32:16;;;;;;;1.37;1.27;;;12.40;99.90;;;;;;5017010;28;20448;-70
2022/10/01 11:34:51;;;;;;;1.10;1.00;;;12.40;99.90;;;;;;5024205;28;21149;-67
2022/10/01 11:37:37;;;;;;;0.97;0.97;;;12.40;99.90;;;;;;5016284;28;20976;-70
2022/10/01 11:40:23;;;;;;;1.40;1.30;;;12.30;99.90;;;;;;5015634;28;20438;-70
2022/10/01 11:42:54;;;;;;;1.10;1.00;;;12.30;99.90;;;;;;5027392;28;20461;-70
2022/10/01 11:45:42;;;;;;;1.23;1.13;;;12.20;99.90;;;;;;5019379;28;20475;-70
2022/10/01 11:48:17;;;;;;;1.17;1.10;;;12.20;99.90;;;;;;5020514;28;20441;-68
2022/10/01 11:50:47;;;;;;;1.20;1.00;;;12.20;99.90;;;;;;5024720;28;20464;-67
2022/10/01 11:53:29;;;;;;;1.20;1.07;;;12.10;99.90;;;;;;5023912;28;20452;-68
2022/10/01 11:59:02;;;;;;;1.00;1.00;;;12.10;99.90;;;;;;5016402;28;20986;-68
2022/10/01 12:02:18;;;;;;;4.03;1.10;;;12.10;99.90;;;;;;5030832;28;20455;-67
2022/10/01 12:04:48;;;;;;;0.93;0.93;;;12.10;99.90;;;;;;5008050;28;20875;-68
2022/10/01 12:07:31;;;;;;;0.97;0.97;;;12.10;99.90;;;;;;5020712;28;20512;-67
2022/10/01 12:10:01;;;;;;;1.40;1.30;;;12.10;99.90;;;;;;5013669;28;20471;-68
2022/10/01 12:12:35;;;;;;;1.00;1.00;;;12.10;99.90;;;;;;5024251;28;20463;-67
2022/10/01 12:15:22;;;;;;;1.00;1.00;;;12.20;99.90;;;;;;5019622;28;20479;-67
2022/10/01 12:18:10;;;;;;;1.37;0.90;;;12.30;99.90;;;;;;5024552;28;20494;-67
2022/10/01 12:20:40;;;;;;;1.30;1.20;;;12.40;99.90;;;;;;5021426;28;20437;-67
2022/10/01 12:23:13;;;;;;;3.80;1.43;;;12.60;99.90;;;;;;5014832;28;20468;-68
2022/10/01 12:26:16;;;;;;;1.03;1.03;;;12.80;99.90;;;;;;5022124;28;20556;-68
2022/10/01 12:28:55;;;;;;;1.20;1.10;;;12.90;99.90;;;;;;4990962;28;20509;-68
2022/10/01 12:31:45;;;;;;;1.40;1.30;;;13.00;99.90;;;;;;5021297;28;20808;-67
2022/10/01 12:34:25;;;;;;;2.70;1.10;;;13.20;99.90;;;;;;5020738;28;20468;-68
2022/10/01 12:37:12;;;;;;;4.83;1.50;;;13.30;99.90;;;;;;5016194;28;20495;-67
2022/10/01 12:40:01;;;;;;;1.47;1.10;;;13.30;99.90;;;;;;5018144;28;20437;-67
2022/10/01 12:42:56;;;;;;;1.20;1.10;;;13.40;99.90;;;;;;5023501;28;20478;-68
2022/10/01 12:45:43;;;;;;;1.30;1.20;;;13.40;99.90;;;;;;5003265;28;20477;-68
2022/10/01 12:48:46;;;;;;;1.10;0.90;;;13.30;99.90;;;;;;5015407;28;20486;-67
2022/10/01 12:51:14;;;;;;;3.07;1.03;;;13.30;99.90;;;;;;5017140;28;20448;-67
2022/10/01 12:53:59;;;;;;;3.07;1.67;;;13.10;99.90;;;;;;5014825;28;20819;-67
2022/10/01 12:56:50;;;;;;;3.57;1.10;;;13.10;99.90;;;;;;5024153;28;21007;-68
2022/10/01 12:59:33;;;;;;;1.80;1.10;;;13.00;99.90;;;;;;4997316;28;20451;-68
2022/10/01 13:02:34;;;;;;;3.90;1.20;;;13.00;99.90;;;;;;5015245;28;21026;-68
2022/10/01 13:05:15;;;;;;;0.90;0.90;;;13.10;99.90;;;;;;5018962;28;20457;-67
2022/10/01 13:08:02;;;;;;;1.83;1.40;;;13.30;99.90;;;;;;5007983;28;20484;-68
2022/10/01 13:10:39;;;;;;;1.70;1.60;;;13.40;99.90;;;;;;5022744;28;20573;-68
2022/10/01 13:13:20;;;;;;;2.70;1.57;;;13.50;99.90;;;;;;5023007;28;20439;-68
2022/10/01 13:15:51;;;;;;;1.70;1.60;;;13.50;99.90;;;;;;5018559;28;20457;-68
2022/10/01 13:18:26;;;;;;;5.47;4.10;;;13.50;99.90;;;;;;5016239;28;20438;-67
2022/10/01 13:21:05;;;;;;;1.40;1.30;;;13.60;99.90;;;;;;5018833;28;20495;-68
2022/10/01 13:23:57;;;;;;;1.53;1.27;;;13.80;99.90;;;;;;5020202;28;20978;-68